Aviation Digital Data Service (ADDS)

Output produced by TAFs form (0750 UTC 25 March 2017)
found at http://www.aviationweather.gov/adds/tafs/
 
METAR text: RJBT 250700Z 01008KT 340V040 9999 FEW040 BKN/// 08/M03 Q1017
Conditions at: RJBT (TAJIMA , JP) observed 0700 UTC 25 March 2017
Temperature: 8.0°C (46°F)
Dewpoint: -3.0°C (27°F) [RH = 46%]
Pressure (altimeter): 30.03 inches Hg (1017.0 mb)
Winds: from the N (10 degrees) at 9 MPH (8 knots; 4.2 m/s)
Visibility: 6 or more miles (10+ km)
Ceiling: at least 12,000 feet AGL
Clouds: few clouds at 4000 feet AGL
Weather: no significant weather observed at this time